sensor_id;sensor_type;location;lat;lon;timestamp;P1;durP1;ratioP1;P2;durP2;ratioP2
27489;SDS011;14925;51.026;13.752;2022-10-18T00:01:19;81.18;;;48.80;;
27489;SDS011;14925;51.026;13.752;2022-10-18T00:03:44;87.30;;;50.83;;
27489;SDS011;14925;51.026;13.752;2022-10-18T00:06:10;75.95;;;46.08;;
27489;SDS011;14925;51.026;13.752;2022-10-18T00:08:36;84.05;;;47.92;;
27489;SDS011;14925;51.026;13.752;2022-10-18T00:11:02;82.40;;;48.17;;
27489;SDS011;14925;51.026;13.752;2022-10-18T00:13:27;85.30;;;48.92;;
27489;SDS011;14925;51.026;13.752;2022-10-18T00:15:54;83.47;;;49.03;;
27489;SDS011;14925;51.026;13.752;2022-10-18T00:18:23;78.93;;;47.15;;
27489;SDS011;14925;51.026;13.752;2022-10-18T00:20:56;79.88;;;46.83;;
27489;SDS011;14925;51.026;13.752;2022-10-18T00:23:31;78.93;;;45.88;;
27489;SDS011;14925;51.026;13.752;2022-10-18T00:26:04;82.70;;;46.97;;
27489;SDS011;14925;51.026;13.752;2022-10-18T00:28:40;80.05;;;47.25;;
27489;SDS011;14925;51.026;13.752;2022-10-18T00:33:45;83.97;;;49.28;;
27489;SDS011;14925;51.026;13.752;2022-10-18T00:36:12;86.20;;;48.63;;
27489;SDS011;14925;51.026;13.752;2022-10-18T00:38:37;92.82;;;50.90;;
27489;SDS011;14925;51.026;13.752;2022-10-18T00:41:04;82.90;;;48.25;;
27489;SDS011;14925;51.026;13.752;2022-10-18T00:43:30;100.10;;;53.80;;
27489;SDS011;14925;51.026;13.752;2022-10-18T00:45:56;91.13;;;51.55;;
27489;SDS011;14925;51.026;13.752;2022-10-18T00:48:21;89.07;;;50.03;;
27489;SDS011;14925;51.026;13.752;2022-10-18T00:50:47;91.53;;;51.13;;
27489;SDS011;14925;51.026;13.752;2022-10-18T00:53:15;97.65;;;51.83;;
27489;SDS011;14925;51.026;13.752;2022-10-18T00:55:42;88.40;;;51.92;;
27489;SDS011;14925;51.026;13.752;2022-10-18T00:58:08;88.20;;;50.25;;
27489;SDS011;14925;51.026;13.752;2022-10-18T01:00:35;90.32;;;49.55;;
27489;SDS011;14925;51.026;13.752;2022-10-18T01:03:05;98.93;;;52.88;;
27489;SDS011;14925;51.026;13.752;2022-10-18T01:05:31;88.30;;;50.33;;
27489;SDS011;14925;51.026;13.752;2022-10-18T01:08:00;82.15;;;48.72;;
27489;SDS011;14925;51.026;13.752;2022-10-18T01:10:48;85.22;;;48.38;;
27489;SDS011;14925;51.026;13.752;2022-10-18T01:22:32;89.47;;;50.70;;
27489;SDS011;14925;51.026;13.752;2022-10-18T01:32:51;86.63;;;48.78;;
27489;SDS011;14925;51.026;13.752;2022-10-18T01:35:23;83.22;;;48.45;;
27489;SDS011;14925;51.026;13.752;2022-10-18T01:37:51;80.50;;;47.60;;
27489;SDS011;14925;51.026;13.752;2022-10-18T01:40:20;90.28;;;51.53;;
27489;SDS011;14925;51.026;13.752;2022-10-18T01:42:46;87.93;;;50.35;;
27489;SDS011;14925;51.026;13.752;2022-10-18T01:45:12;92.68;;;50.00;;
27489;SDS011;14925;51.026;13.752;2022-10-18T01:47:39;85.60;;;48.78;;
27489;SDS011;14925;51.026;13.752;2022-10-18T01:50:05;91.35;;;51.33;;
27489;SDS011;14925;51.026;13.752;2022-10-18T01:52:30;97.38;;;52.58;;
27489;SDS011;14925;51.026;13.752;2022-10-18T01:54:56;96.72;;;52.45;;
27489;SDS011;14925;51.026;13.752;2022-10-18T01:57:23;86.47;;;50.00;;
27489;SDS011;14925;51.026;13.752;2022-10-18T02:08:07;93.15;;;51.97;;
27489;SDS011;14925;51.026;13.752;2022-10-18T02:10:47;88.15;;;49.72;;
27489;SDS011;14925;51.026;13.752;2022-10-18T02:13:48;98.40;;;52.30;;
27489;SDS011;14925;51.026;13.752;2022-10-18T02:16:18;96.38;;;52.47;;
27489;SDS011;14925;51.026;13.752;2022-10-18T02:18:48;91.72;;;51.92;;
27489;SDS011;14925;51.026;13.752;2022-10-18T02:21:16;99.85;;;54.53;;
27489;SDS011;14925;51.026;13.752;2022-10-18T02:23:42;96.78;;;53.50;;
27489;SDS011;14925;51.026;13.752;2022-10-18T02:26:09;100.85;;;54.20;;
27489;SDS011;14925;51.026;13.752;2022-10-18T02:28:34;100.22;;;53.92;;
27489;SDS011;14925;51.026;13.752;2022-10-18T02:31:05;105.57;;;55.97;;
27489;SDS011;14925;51.026;13.752;2022-10-18T02:36:26;108.78;;;56.75;;
27489;SDS011;14925;51.026;13.752;2022-10-18T02:38:53;104.63;;;55.45;;
27489;SDS011;14925;51.026;13.752;2022-10-18T02:41:22;101.75;;;54.25;;
27489;SDS011;14925;51.026;13.752;2022-10-18T02:43:48;103.20;;;52.08;;
27489;SDS011;14925;51.026;13.752;2022-10-18T02:46:13;97.75;;;52.03;;
27489;SDS011;14925;51.026;13.752;2022-10-18T02:48:39;96.93;;;52.78;;
27489;SDS011;14925;51.026;13.752;2022-10-18T02:51:04;117.97;;;58.88;;
27489;SDS011;14925;51.026;13.752;2022-10-18T02:53:29;113.65;;;57.00;;
27489;SDS011;14925;51.026;13.752;2022-10-18T02:55:55;114.47;;;56.33;;
27489;SDS011;14925;51.026;13.752;2022-10-18T02:58:20;86.95;;;49.15;;
27489;SDS011;14925;51.026;13.752;2022-10-18T03:00:48;112.78;;;58.13;;
27489;SDS011;14925;51.026;13.752;2022-10-18T03:03:13;104.10;;;55.35;;
27489;SDS011;14925;51.026;13.752;2022-10-18T03:05:39;100.65;;;52.47;;
27489;SDS011;14925;51.026;13.752;2022-10-18T03:08:04;105.57;;;57.65;;
27489;SDS011;14925;51.026;13.752;2022-10-18T03:10:29;105.15;;;55.80;;
27489;SDS011;14925;51.026;13.752;2022-10-18T03:12:55;95.25;;;52.72;;
27489;SDS011;14925;51.026;13.752;2022-10-18T03:15:20;105.60;;;55.03;;
27489;SDS011;14925;51.026;13.752;2022-10-18T03:17:45;101.32;;;54.35;;
27489;SDS011;14925;51.026;13.752;2022-10-18T03:20:11;88.10;;;51.13;;
27489;SDS011;14925;51.026;13.752;2022-10-18T03:22:36;96.40;;;52.08;;
27489;SDS011;14925;51.026;13.752;2022-10-18T03:25:02;91.40;;;49.22;;
27489;SDS011;14925;51.026;13.752;2022-10-18T03:27:27;101.75;;;53.17;;
27489;SDS011;14925;51.026;13.752;2022-10-18T03:29:52;100.55;;;53.05;;
27489;SDS011;14925;51.026;13.752;2022-10-18T03:32:18;91.70;;;50.15;;
27489;SDS011;14925;51.026;13.752;2022-10-18T03:34:43;104.57;;;56.10;;
27489;SDS011;14925;51.026;13.752;2022-10-18T03:37:09;92.82;;;50.10;;
27489;SDS011;14925;51.026;13.752;2022-10-18T03:39:37;97.72;;;53.45;;
27489;SDS011;14925;51.026;13.752;2022-10-18T03:42:02;99.57;;;52.35;;
27489;SDS011;14925;51.026;13.752;2022-10-18T03:44:28;87.43;;;49.47;;
27489;SDS011;14925;51.026;13.752;2022-10-18T03:46:53;108.55;;;56.50;;
27489;SDS011;14925;51.026;13.752;2022-10-18T03:49:18;93.95;;;50.72;;
27489;SDS011;14925;51.026;13.752;2022-10-18T03:51:44;103.22;;;54.75;;
27489;SDS011;14925;51.026;13.752;2022-10-18T03:54:09;106.50;;;55.58;;
27489;SDS011;14925;51.026;13.752;2022-10-18T03:56:34;98.07;;;52.92;;
27489;SDS011;14925;51.026;13.752;2022-10-18T03:59:00;87.03;;;49.88;;
27489;SDS011;14925;51.026;13.752;2022-10-18T04:01:26;94.90;;;51.28;;
27489;SDS011;14925;51.026;13.752;2022-10-18T04:03:52;98.40;;;51.40;;
27489;SDS011;14925;51.026;13.752;2022-10-18T04:06:17;96.85;;;52.55;;
27489;SDS011;14925;51.026;13.752;2022-10-18T04:08:42;90.35;;;49.45;;
27489;SDS011;14925;51.026;13.752;2022-10-18T04:11:08;91.07;;;50.67;;
27489;SDS011;14925;51.026;13.752;2022-10-18T04:13:34;86.53;;;48.45;;
27489;SDS011;14925;51.026;13.752;2022-10-18T04:16:00;90.13;;;51.03;;
27489;SDS011;14925;51.026;13.752;2022-10-18T04:18:25;90.50;;;49.22;;
27489;SDS011;14925;51.026;13.752;2022-10-18T04:20:50;87.80;;;48.92;;
27489;SDS011;14925;51.026;13.752;2022-10-18T04:23:16;92.47;;;49.95;;
27489;SDS011;14925;51.026;13.752;2022-10-18T04:25:41;84.38;;;48.33;;
27489;SDS011;14925;51.026;13.752;2022-10-18T04:28:06;89.22;;;50.63;;
27489;SDS011;14925;51.026;13.752;2022-10-18T04:30:32;80.63;;;48.13;;
27489;SDS011;14925;51.026;13.752;2022-10-18T04:32:57;88.50;;;48.92;;
27489;SDS011;14925;51.026;13.752;2022-10-18T04:35:22;87.47;;;49.65;;
27489;SDS011;14925;51.026;13.752;2022-10-18T04:37:49;84.82;;;47.45;;
27489;SDS011;14925;51.026;13.752;2022-10-18T04:40:15;87.20;;;49.92;;
27489;SDS011;14925;51.026;13.752;2022-10-18T04:42:40;85.05;;;48.53;;
27489;SDS011;14925;51.026;13.752;2022-10-18T04:45:06;91.15;;;48.30;;
27489;SDS011;14925;51.026;13.752;2022-10-18T04:47:31;84.20;;;47.47;;
27489;SDS011;14925;51.026;13.752;2022-10-18T04:49:57;75.07;;;44.53;;
27489;SDS011;14925;51.026;13.752;2022-10-18T04:52:22;75.28;;;44.58;;
27489;SDS011;14925;51.026;13.752;2022-10-18T04:54:48;78.15;;;46.40;;
27489;SDS011;14925;51.026;13.752;2022-10-18T04:57:13;75.15;;;44.70;;
27489;SDS011;14925;51.026;13.752;2022-10-18T04:59:38;76.60;;;45.88;;
27489;SDS011;14925;51.026;13.752;2022-10-18T05:02:04;77.97;;;45.13;;
27489;SDS011;14925;51.026;13.752;2022-10-18T05:04:29;72.88;;;42.75;;
27489;SDS011;14925;51.026;13.752;2022-10-18T05:06:54;71.97;;;44.75;;
27489;SDS011;14925;51.026;13.752;2022-10-18T05:09:20;78.47;;;44.97;;
27489;SDS011;14925;51.026;13.752;2022-10-18T05:11:48;75.13;;;45.03;;
27489;SDS011;14925;51.026;13.752;2022-10-18T05:14:16;78.30;;;45.78;;
27489;SDS011;14925;51.026;13.752;2022-10-18T05:16:41;72.68;;;44.00;;
27489;SDS011;14925;51.026;13.752;2022-10-18T05:19:07;75.82;;;45.40;;
27489;SDS011;14925;51.026;13.752;2022-10-18T05:21:32;69.40;;;43.17;;
27489;SDS011;14925;51.026;13.752;2022-10-18T05:23:58;78.72;;;45.95;;
27489;SDS011;14925;51.026;13.752;2022-10-18T05:26:23;79.63;;;46.90;;
27489;SDS011;14925;51.026;13.752;2022-10-18T05:28:49;76.68;;;44.97;;
27489;SDS011;14925;51.026;13.752;2022-10-18T05:31:14;77.03;;;45.67;;
27489;SDS011;14925;51.026;13.752;2022-10-18T05:33:40;83.53;;;47.75;;
27489;SDS011;14925;51.026;13.752;2022-10-18T05:36:08;84.05;;;46.92;;
27489;SDS011;14925;51.026;13.752;2022-10-18T05:38:37;76.32;;;45.20;;
27489;SDS011;14925;51.026;13.752;2022-10-18T05:41:05;78.47;;;47.08;;
27489;SDS011;14925;51.026;13.752;2022-10-18T05:43:31;76.05;;;44.25;;
27489;SDS011;14925;51.026;13.752;2022-10-18T05:45:56;71.80;;;42.15;;
27489;SDS011;14925;51.026;13.752;2022-10-18T05:48:22;74.93;;;45.67;;
27489;SDS011;14925;51.026;13.752;2022-10-18T05:50:47;68.15;;;42.83;;
27489;SDS011;14925;51.026;13.752;2022-10-18T05:53:13;74.75;;;44.25;;
27489;SDS011;14925;51.026;13.752;2022-10-18T05:55:38;73.25;;;45.00;;
27489;SDS011;14925;51.026;13.752;2022-10-18T05:58:03;74.05;;;44.38;;
27489;SDS011;14925;51.026;13.752;2022-10-18T06:00:29;71.00;;;42.50;;
27489;SDS011;14925;51.026;13.752;2022-10-18T06:03:03;69.45;;;43.70;;
27489;SDS011;14925;51.026;13.752;2022-10-18T06:05:29;71.05;;;43.25;;
27489;SDS011;14925;51.026;13.752;2022-10-18T06:07:56;69.70;;;42.33;;
27489;SDS011;14925;51.026;13.752;2022-10-18T06:10:22;66.10;;;41.53;;
27489;SDS011;14925;51.026;13.752;2022-10-18T06:12:50;67.88;;;41.85;;
27489;SDS011;14925;51.026;13.752;2022-10-18T06:15:17;66.18;;;40.47;;
27489;SDS011;14925;51.026;13.752;2022-10-18T06:17:43;57.83;;;38.00;;
27489;SDS011;14925;51.026;13.752;2022-10-18T06:20:08;61.08;;;38.75;;
27489;SDS011;14925;51.026;13.752;2022-10-18T06:22:34;65.47;;;40.00;;
27489;SDS011;14925;51.026;13.752;2022-10-18T06:24:59;58.63;;;39.53;;
27489;SDS011;14925;51.026;13.752;2022-10-18T06:27:25;61.53;;;39.22;;
27489;SDS011;14925;51.026;13.752;2022-10-18T06:29:50;63.55;;;39.88;;
27489;SDS011;14925;51.026;13.752;2022-10-18T06:32:15;62.50;;;39.47;;
27489;SDS011;14925;51.026;13.752;2022-10-18T06:34:41;64.05;;;39.15;;
27489;SDS011;14925;51.026;13.752;2022-10-18T06:37:06;61.08;;;38.75;;
27489;SDS011;14925;51.026;13.752;2022-10-18T06:39:32;66.72;;;40.53;;
27489;SDS011;14925;51.026;13.752;2022-10-18T06:42:09;65.93;;;40.20;;
27489;SDS011;14925;51.026;13.752;2022-10-18T06:44:37;62.53;;;39.20;;
27489;SDS011;14925;51.026;13.752;2022-10-18T06:47:06;61.42;;;38.53;;
27489;SDS011;14925;51.026;13.752;2022-10-18T06:49:32;61.70;;;38.80;;
27489;SDS011;14925;51.026;13.752;2022-10-18T06:51:58;68.95;;;38.83;;
27489;SDS011;14925;51.026;13.752;2022-10-18T06:54:24;65.65;;;39.78;;
27489;SDS011;14925;51.026;13.752;2022-10-18T06:56:49;64.45;;;39.72;;
27489;SDS011;14925;51.026;13.752;2022-10-18T06:59:15;66.60;;;40.67;;
27489;SDS011;14925;51.026;13.752;2022-10-18T07:01:44;61.58;;;37.63;;
27489;SDS011;14925;51.026;13.752;2022-10-18T07:04:09;62.67;;;38.03;;
27489;SDS011;14925;51.026;13.752;2022-10-18T07:06:34;59.45;;;37.90;;
27489;SDS011;14925;51.026;13.752;2022-10-18T07:09:00;58.35;;;37.63;;
27489;SDS011;14925;51.026;13.752;2022-10-18T07:11:27;60.72;;;38.33;;
27489;SDS011;14925;51.026;13.752;2022-10-18T07:13:53;62.05;;;39.17;;
27489;SDS011;14925;51.026;13.752;2022-10-18T07:16:19;61.72;;;38.20;;
27489;SDS011;14925;51.026;13.752;2022-10-18T07:18:46;59.08;;;38.67;;
27489;SDS011;14925;51.026;13.752;2022-10-18T07:21:13;60.95;;;39.10;;
27489;SDS011;14925;51.026;13.752;2022-10-18T07:23:42;57.75;;;37.30;;
27489;SDS011;14925;51.026;13.752;2022-10-18T07:26:11;61.35;;;38.92;;
27489;SDS011;14925;51.026;13.752;2022-10-18T07:28:37;52.30;;;36.00;;
27489;SDS011;14925;51.026;13.752;2022-10-18T07:31:05;59.70;;;37.63;;
27489;SDS011;14925;51.026;13.752;2022-10-18T07:33:34;55.00;;;34.58;;
27489;SDS011;14925;51.026;13.752;2022-10-18T07:36:08;54.47;;;35.97;;
27489;SDS011;14925;51.026;13.752;2022-10-18T07:38:34;51.80;;;34.05;;
27489;SDS011;14925;51.026;13.752;2022-10-18T07:41:01;54.13;;;35.72;;
27489;SDS011;14925;51.026;13.752;2022-10-18T07:43:28;52.35;;;34.28;;
27489;SDS011;14925;51.026;13.752;2022-10-18T07:45:55;52.22;;;34.83;;
27489;SDS011;14925;51.026;13.752;2022-10-18T07:48:24;46.60;;;32.90;;
27489;SDS011;14925;51.026;13.752;2022-10-18T07:50:50;50.92;;;34.28;;
27489;SDS011;14925;51.026;13.752;2022-10-18T07:53:15;50.70;;;33.30;;
27489;SDS011;14925;51.026;13.752;2022-10-18T07:55:41;51.42;;;34.15;;
27489;SDS011;14925;51.026;13.752;2022-10-18T07:58:07;53.85;;;32.88;;
27489;SDS011;14925;51.026;13.752;2022-10-18T08:00:34;48.15;;;32.47;;
27489;SDS011;14925;51.026;13.752;2022-10-18T08:03:00;51.75;;;31.98;;
27489;SDS011;14925;51.026;13.752;2022-10-18T08:05:26;48.08;;;33.53;;
27489;SDS011;14925;51.026;13.752;2022-10-18T08:07:52;51.13;;;33.20;;
27489;SDS011;14925;51.026;13.752;2022-10-18T08:10:18;47.53;;;31.77;;
27489;SDS011;14925;51.026;13.752;2022-10-18T08:12:44;50.00;;;33.03;;
27489;SDS011;14925;51.026;13.752;2022-10-18T08:15:11;47.22;;;32.25;;
27489;SDS011;14925;51.026;13.752;2022-10-18T08:17:37;48.67;;;32.60;;
27489;SDS011;14925;51.026;13.752;2022-10-18T08:20:05;48.35;;;32.85;;
27489;SDS011;14925;51.026;13.752;2022-10-18T08:22:30;48.03;;;32.33;;
27489;SDS011;14925;51.026;13.752;2022-10-18T08:24:58;53.22;;;32.72;;
27489;SDS011;14925;51.026;13.752;2022-10-18T08:27:24;51.42;;;32.50;;
27489;SDS011;14925;51.026;13.752;2022-10-18T08:29:51;46.63;;;32.05;;
27489;SDS011;14925;51.026;13.752;2022-10-18T08:32:17;48.75;;;32.13;;
27489;SDS011;14925;51.026;13.752;2022-10-18T08:34:42;46.83;;;32.85;;
27489;SDS011;14925;51.026;13.752;2022-10-18T08:37:08;44.28;;;31.05;;
27489;SDS011;14925;51.026;13.752;2022-10-18T08:39:34;49.20;;;32.47;;
27489;SDS011;14925;51.026;13.752;2022-10-18T08:44:47;47.92;;;32.08;;
27489;SDS011;14925;51.026;13.752;2022-10-18T08:47:17;48.53;;;32.08;;
27489;SDS011;14925;51.026;13.752;2022-10-18T08:49:51;50.25;;;32.90;;
27489;SDS011;14925;51.026;13.752;2022-10-18T08:52:35;44.95;;;31.77;;
27489;SDS011;14925;51.026;13.752;2022-10-18T08:57:36;50.72;;;33.38;;
27489;SDS011;14925;51.026;13.752;2022-10-18T09:00:06;51.05;;;32.30;;
27489;SDS011;14925;51.026;13.752;2022-10-18T09:02:42;47.95;;;32.97;;
27489;SDS011;14925;51.026;13.752;2022-10-18T09:05:20;52.65;;;33.72;;
27489;SDS011;14925;51.026;13.752;2022-10-18T09:07:53;46.05;;;31.20;;
27489;SDS011;14925;51.026;13.752;2022-10-18T09:16:28;49.38;;;33.08;;
27489;SDS011;14925;51.026;13.752;2022-10-18T09:19:19;48.85;;;32.45;;
27489;SDS011;14925;51.026;13.752;2022-10-18T09:22:01;50.63;;;33.08;;
27489;SDS011;14925;51.026;13.752;2022-10-18T09:27:11;47.28;;;31.23;;
27489;SDS011;14925;51.026;13.752;2022-10-18T09:35:02;46.30;;;30.17;;
27489;SDS011;14925;51.026;13.752;2022-10-18T09:37:31;54.38;;;33.15;;
27489;SDS011;14925;51.026;13.752;2022-10-18T09:45:55;42.38;;;29.50;;
27489;SDS011;14925;51.026;13.752;2022-10-18T09:48:37;45.78;;;30.48;;
27489;SDS011;14925;51.026;13.752;2022-10-18T09:51:08;44.28;;;30.25;;
27489;SDS011;14925;51.026;13.752;2022-10-18T09:56:14;40.80;;;27.73;;
27489;SDS011;14925;51.026;13.752;2022-10-18T09:58:43;42.28;;;28.83;;
27489;SDS011;14925;51.026;13.752;2022-10-18T10:01:12;44.45;;;29.08;;
27489;SDS011;14925;51.026;13.752;2022-10-18T10:03:40;37.53;;;28.02;;
27489;SDS011;14925;51.026;13.752;2022-10-18T10:08:47;39.55;;;27.08;;
27489;SDS011;14925;51.026;13.752;2022-10-18T10:11:26;39.17;;;26.75;;
27489;SDS011;14925;51.026;13.752;2022-10-18T10:13:56;36.83;;;26.42;;
27489;SDS011;14925;51.026;13.752;2022-10-18T10:16:22;40.83;;;26.67;;
27489;SDS011;14925;51.026;13.752;2022-10-18T10:18:52;41.22;;;26.30;;
27489;SDS011;14925;51.026;13.752;2022-10-18T10:21:18;39.63;;;25.95;;
27489;SDS011;14925;51.026;13.752;2022-10-18T10:23:45;35.35;;;24.65;;
27489;SDS011;14925;51.026;13.752;2022-10-18T10:26:29;42.47;;;27.58;;
27489;SDS011;14925;51.026;13.752;2022-10-18T10:29:33;38.80;;;27.48;;
27489;SDS011;14925;51.026;13.752;2022-10-18T10:32:10;45.63;;;27.90;;
27489;SDS011;14925;51.026;13.752;2022-10-18T10:34:36;38.28;;;27.38;;
27489;SDS011;14925;51.026;13.752;2022-10-18T10:37:02;38.30;;;27.60;;
27489;SDS011;14925;51.026;13.752;2022-10-18T10:39:29;38.90;;;29.13;;
27489;SDS011;14925;51.026;13.752;2022-10-18T10:41:55;39.88;;;28.10;;
27489;SDS011;14925;51.026;13.752;2022-10-18T10:44:23;40.00;;;27.25;;
27489;SDS011;14925;51.026;13.752;2022-10-18T10:46:51;39.97;;;27.02;;
27489;SDS011;14925;51.026;13.752;2022-10-18T10:49:18;40.95;;;26.75;;
27489;SDS011;14925;51.026;13.752;2022-10-18T10:51:52;45.70;;;28.65;;
27489;SDS011;14925;51.026;13.752;2022-10-18T10:54:20;42.80;;;30.77;;
27489;SDS011;14925;51.026;13.752;2022-10-18T10:59:53;51.95;;;34.70;;
27489;SDS011;14925;51.026;13.752;2022-10-18T11:02:20;58.70;;;34.90;;
27489;SDS011;14925;51.026;13.752;2022-10-18T11:04:48;51.13;;;32.33;;
27489;SDS011;14925;51.026;13.752;2022-10-18T11:07:24;42.45;;;27.05;;
27489;SDS011;14925;51.026;13.752;2022-10-18T11:10:10;45.00;;;28.88;;
27489;SDS011;14925;51.026;13.752;2022-10-18T11:12:38;51.10;;;31.30;;
27489;SDS011;14925;51.026;13.752;2022-10-18T11:23:15;37.88;;;24.52;;
27489;SDS011;14925;51.026;13.752;2022-10-18T11:25:49;29.17;;;19.52;;
27489;SDS011;14925;51.026;13.752;2022-10-18T11:31:11;28.88;;;18.73;;
27489;SDS011;14925;51.026;13.752;2022-10-18T11:39:13;33.72;;;20.77;;
27489;SDS011;14925;51.026;13.752;2022-10-18T12:05:25;14.77;;;10.57;;
27489;SDS011;14925;51.026;13.752;2022-10-18T12:08:13;12.18;;;9.25;;
27489;SDS011;14925;51.026;13.752;2022-10-18T12:10:42;18.38;;;11.38;;
27489;SDS011;14925;51.026;13.752;2022-10-18T12:13:12;17.35;;;11.13;;
27489;SDS011;14925;51.026;13.752;2022-10-18T12:15:43;17.85;;;12.10;;
27489;SDS011;14925;51.026;13.752;2022-10-18T12:18:13;20.20;;;12.77;;
27489;SDS011;14925;51.026;13.752;2022-10-18T12:20:46;16.02;;;10.60;;
27489;SDS011;14925;51.026;13.752;2022-10-18T12:23:17;16.23;;;10.48;;
27489;SDS011;14925;51.026;13.752;2022-10-18T12:25:48;16.27;;;10.85;;
27489;SDS011;14925;51.026;13.752;2022-10-18T12:33:46;18.60;;;11.35;;
27489;SDS011;14925;51.026;13.752;2022-10-18T12:38:56;20.75;;;12.80;;
27489;SDS011;14925;51.026;13.752;2022-10-18T12:41:33;15.95;;;10.20;;
27489;SDS011;14925;51.026;13.752;2022-10-18T12:44:17;21.08;;;10.90;;
27489;SDS011;14925;51.026;13.752;2022-10-18T12:46:49;18.15;;;9.88;;
27489;SDS011;14925;51.026;13.752;2022-10-18T12:49:18;16.88;;;10.88;;
27489;SDS011;14925;51.026;13.752;2022-10-18T12:51:53;18.75;;;9.52;;
27489;SDS011;14925;51.026;13.752;2022-10-18T12:54:21;16.50;;;9.35;;
27489;SDS011;14925;51.026;13.752;2022-10-18T12:56:49;17.95;;;9.15;;
27489;SDS011;14925;51.026;13.752;2022-10-18T13:07:09;15.07;;;8.23;;
27489;SDS011;14925;51.026;13.752;2022-10-18T13:09:41;8.48;;;6.03;;
27489;SDS011;14925;51.026;13.752;2022-10-18T13:17:33;12.07;;;7.80;;
27489;SDS011;14925;51.026;13.752;2022-10-18T13:28:31;7.55;;;4.65;;
27489;SDS011;14925;51.026;13.752;2022-10-18T13:33:38;4.97;;;4.25;;
27489;SDS011;14925;51.026;13.752;2022-10-18T13:36:05;9.70;;;5.07;;
27489;SDS011;14925;51.026;13.752;2022-10-18T13:41:25;8.40;;;5.45;;
27489;SDS011;14925;51.026;13.752;2022-10-18T13:58:00;6.93;;;4.00;;
27489;SDS011;14925;51.026;13.752;2022-10-18T14:03:47;6.45;;;4.10;;
27489;SDS011;14925;51.026;13.752;2022-10-18T14:06:32;4.50;;;3.35;;
27489;SDS011;14925;51.026;13.752;2022-10-18T14:09:11;4.65;;;3.55;;
27489;SDS011;14925;51.026;13.752;2022-10-18T14:19:29;6.85;;;4.47;;
27489;SDS011;14925;51.026;13.752;2022-10-18T14:22:21;5.45;;;3.88;;
27489;SDS011;14925;51.026;13.752;2022-10-18T14:25:18;5.57;;;3.10;;
27489;SDS011;14925;51.026;13.752;2022-10-18T14:31:04;4.38;;;3.30;;
27489;SDS011;14925;51.026;13.752;2022-10-18T14:46:39;5.25;;;4.03;;
27489;SDS011;14925;51.026;13.752;2022-10-18T14:49:09;7.88;;;4.97;;
27489;SDS011;14925;51.026;13.752;2022-10-18T14:51:36;6.40;;;4.28;;
27489;SDS011;14925;51.026;13.752;2022-10-18T14:54:03;11.80;;;6.63;;
27489;SDS011;14925;51.026;13.752;2022-10-18T14:56:35;8.93;;;5.60;;
27489;SDS011;14925;51.026;13.752;2022-10-18T14:59:03;11.25;;;6.00;;
27489;SDS011;14925;51.026;13.752;2022-10-18T15:01:33;8.63;;;6.40;;
27489;SDS011;14925;51.026;13.752;2022-10-18T15:04:02;7.53;;;4.70;;
27489;SDS011;14925;51.026;13.752;2022-10-18T15:06:31;8.00;;;5.60;;
27489;SDS011;14925;51.026;13.752;2022-10-18T15:08:56;9.93;;;6.05;;
27489;SDS011;14925;51.026;13.752;2022-10-18T15:11:23;7.68;;;4.72;;
27489;SDS011;14925;51.026;13.752;2022-10-18T15:13:56;5.95;;;4.32;;
27489;SDS011;14925;51.026;13.752;2022-10-18T15:16:26;7.07;;;5.00;;
27489;SDS011;14925;51.026;13.752;2022-10-18T15:19:06;7.35;;;4.72;;
27489;SDS011;14925;51.026;13.752;2022-10-18T15:26:51;8.23;;;5.57;;
27489;SDS011;14925;51.026;13.752;2022-10-18T15:29:18;5.32;;;4.53;;
27489;SDS011;14925;51.026;13.752;2022-10-18T15:31:44;5.72;;;5.03;;
27489;SDS011;14925;51.026;13.752;2022-10-18T15:34:21;8.00;;;4.10;;
27489;SDS011;14925;51.026;13.752;2022-10-18T15:36:49;6.22;;;5.00;;
27489;SDS011;14925;51.026;13.752;2022-10-18T15:39:22;8.90;;;5.88;;
27489;SDS011;14925;51.026;13.752;2022-10-18T15:46:46;8.07;;;6.30;;
27489;SDS011;14925;51.026;13.752;2022-10-18T15:54:30;8.90;;;6.22;;
27489;SDS011;14925;51.026;13.752;2022-10-18T15:56:56;8.13;;;6.68;;
27489;SDS011;14925;51.026;13.752;2022-10-18T15:59:22;10.55;;;6.75;;
27489;SDS011;14925;51.026;13.752;2022-10-18T16:01:49;8.70;;;6.43;;
27489;SDS011;14925;51.026;13.752;2022-10-18T16:06:43;6.85;;;5.45;;
27489;SDS011;14925;51.026;13.752;2022-10-18T16:09:15;5.78;;;4.95;;
27489;SDS011;14925;51.026;13.752;2022-10-18T16:11:41;6.75;;;5.28;;
27489;SDS011;14925;51.026;13.752;2022-10-18T16:14:07;9.43;;;6.55;;
27489;SDS011;14925;51.026;13.752;2022-10-18T16:16:32;9.68;;;6.75;;
27489;SDS011;14925;51.026;13.752;2022-10-18T16:18:58;13.73;;;9.63;;
27489;SDS011;14925;51.026;13.752;2022-10-18T16:21:25;11.32;;;7.70;;
27489;SDS011;14925;51.026;13.752;2022-10-18T16:23:52;10.98;;;8.30;;
27489;SDS011;14925;51.026;13.752;2022-10-18T16:26:18;14.02;;;9.60;;
27489;SDS011;14925;51.026;13.752;2022-10-18T16:28:44;16.92;;;11.55;;
27489;SDS011;14925;51.026;13.752;2022-10-18T16:31:15;12.13;;;9.30;;
27489;SDS011;14925;51.026;13.752;2022-10-18T16:33:44;11.25;;;8.73;;
27489;SDS011;14925;51.026;13.752;2022-10-18T16:36:12;11.48;;;8.80;;
27489;SDS011;14925;51.026;13.752;2022-10-18T16:38:38;11.57;;;8.85;;
27489;SDS011;14925;51.026;13.752;2022-10-18T16:41:05;10.73;;;8.00;;
27489;SDS011;14925;51.026;13.752;2022-10-18T16:43:31;14.25;;;10.40;;
27489;SDS011;14925;51.026;13.752;2022-10-18T16:45:57;13.43;;;8.85;;
27489;SDS011;14925;51.026;13.752;2022-10-18T16:48:23;12.52;;;9.10;;
27489;SDS011;14925;51.026;13.752;2022-10-18T16:50:48;15.98;;;10.98;;
27489;SDS011;14925;51.026;13.752;2022-10-18T16:53:14;7.28;;;6.43;;
27489;SDS011;14925;51.026;13.752;2022-10-18T16:55:40;9.35;;;7.72;;
27489;SDS011;14925;51.026;13.752;2022-10-18T16:58:07;7.13;;;5.82;;
27489;SDS011;14925;51.026;13.752;2022-10-18T17:00:39;12.13;;;8.32;;
27489;SDS011;14925;51.026;13.752;2022-10-18T17:03:05;12.70;;;9.02;;
27489;SDS011;14925;51.026;13.752;2022-10-18T17:05:31;8.02;;;6.63;;
27489;SDS011;14925;51.026;13.752;2022-10-18T17:07:56;11.52;;;8.70;;
27489;SDS011;14925;51.026;13.752;2022-10-18T17:10:22;9.02;;;6.68;;
27489;SDS011;14925;51.026;13.752;2022-10-18T17:12:51;10.63;;;8.98;;
27489;SDS011;14925;51.026;13.752;2022-10-18T17:15:16;20.65;;;12.75;;
27489;SDS011;14925;51.026;13.752;2022-10-18T17:17:42;10.85;;;7.68;;
27489;SDS011;14925;51.026;13.752;2022-10-18T17:20:08;11.27;;;7.95;;
27489;SDS011;14925;51.026;13.752;2022-10-18T17:22:35;8.00;;;5.88;;
27489;SDS011;14925;51.026;13.752;2022-10-18T17:25:00;7.70;;;6.50;;
27489;SDS011;14925;51.026;13.752;2022-10-18T17:27:26;8.63;;;5.72;;
27489;SDS011;14925;51.026;13.752;2022-10-18T17:29:51;10.43;;;7.20;;
27489;SDS011;14925;51.026;13.752;2022-10-18T17:32:16;11.07;;;8.73;;
27489;SDS011;14925;51.026;13.752;2022-10-18T17:34:42;19.23;;;11.98;;
27489;SDS011;14925;51.026;13.752;2022-10-18T17:37:07;7.15;;;6.03;;
27489;SDS011;14925;51.026;13.752;2022-10-18T17:39:33;10.27;;;7.72;;